Terminal Aerodrome Forecast
Issued by NWS

Home | Current Version | Previous Version | Text Only | Print | Product List | Glossary On
Versions: 1 2 3 4 5 6 7 8 9 10 11 12 13 14 15 16 17 18 19 20 21 22
000
FTUS43 KAPX 251723
TAFAPN
TAF
KAPN 251723Z 2518/2618 06010G17KT 5SM -RA BR OVC004
      TEMPO 2518/2522 2SM -SHRA BR
     FM252200 05008KT 5SM -RA BR OVC004
     FM260600 35004KT 3SM BR OVC003
     FM261600 35005KT P6SM BKN010=

USA.gov is the U.S. government's official web portal to all federal, state and local government web resources and services.